Islesford, ME (04646)

1:53 PM EST on February 09, 2016 (GMT -0500)
GCI town dock | | Change Station
CLOSE
Current Station
Personal Weather Station
Location: CRANBERRY IS, ME
Elevation: -16 ft
Nearby Weather Stations

Elev -16 ft 44.26 °N, 68.27 °W | Updated 21 seconds ago

Overcast
Overcast
25.2 °F
Feels Like 15 °F
N
10.5
Wind Variable Wind from NNW
Gusts 15.0 mph

Today
High -- | Low -- °F
--% Chance of Precip.
Yesterday
High -- | Low -- °F
Precip. -- in
Pressure 29.63 in
Visibility 10.0 miles
Clouds Mostly Cloudy 1800 ft
Overcast 3000 ft
Windchill 15 °F
Dew Point 21 °F
Humidity 78%
Rainfall 0.00 in
Snow Depth Not available.
6:41 AM 4:53 PM
New Moon, 2% visible
METAR KBHB 091835Z 36004KT 10SM BKN018 OVC030 M04/M07 A2963 RMK AO1
Pressure 29.63 in
Visibility 10.0 miles
Clouds Mostly Cloudy 1800 ft
Overcast 3000 ft
Windchill 15 °F
Dew Point 21 °F
Humidity 78%
Rainfall 0.00 in
Snow Depth Not available.
6:41 AM 4:53 PM
New Moon, 2% visible
METAR KBHB 091835Z 36004KT 10SM BKN018 OVC030 M04/M07 A2963 RMK AO1

10-Day Weather Forecast

Almanac

Astronomy

Feb. 09, 2016 Rise Set
Actual Time
Civil Twilight
Nautical Twilight
Astronomical Twilight
Moon
Length of Visible Light
Length of Day
Tomorrow will be .
, % of the Moon is Illuminated

Today's Extremes

State Highs State Lows

Community

WunderPhotos

Upload Photos

1,891,660 photos uploaded!

WunderBlog® & News

Nearby

Air Quality

  Air Quality AQ Index Pollutant
Not available.

Snow Depth

Station Depth Elevation

Earthquake Activity

City Distance Mag. Time & Date
Minimum magnitude displayed is 2.5.

Coastal Water Temperatures

Place Temperature

Stations

Nearby Weather Stations

Station Location Temp. Windchill Dew Point Humidity Wind Precip. Elev Updated Type
                   

Watches & Warnings

There are currently no watches in effect.